Latest Weather Observations for Kingaroy

IDQ60801

Issued at 2:32 pm EST Friday 21 July 2017 (issued every 30 minutes, with the page automatically refreshed every 10 minutes)

About weather observations | Map of weather stations | Latest weather observations for QLD | Other Formats
Station Details ID: 040922 Name: KINGAROY AIRPORT Lat: -26.57 Lon: 151.84 Height: 433.67 m
Data from the previous 72 hours. | See also: Recent months at Kingaroy
Date/Time
EST
Temp
°C
App
Temp
°C
Dew
Point
°C
Rel
Hum
%
Delta-T
°C
Wind Press
QNH
hPa
Press
MSL
hPa
Rain since
9am
mm
Dir  Spd
km/h
Gust
km/h
Spd
kts
Gust
kts
21/02:30pm 18.7 13.1 -6.1 18 9.8 WSW 15 22 8 12 1018.0 1017.9 0.0
21/02:00pm 18.4 12.7 -7.8 16 9.9 WSW 15 28 8 15 1018.2 1018.1 0.0
21/01:30pm 19.2 14.3 -7.2 16 10.2 SW 11 20 6 11 1018.5 1018.4 0.0
21/01:00pm 18.1 12.6 -5.2 20 9.3 SW 15 20 8 11 1019.0 1018.9 0.0
21/12:30pm 17.3 11.1 -4.6 22 8.8 SW 19 28 10 15 1019.4 1019.3 0.0
21/12:00pm 17.3 12.3 -4.6 22 8.8 SW 13 24 7 13 1020.0 1019.9 0.0
21/11:30am 16.5 10.7 -4.7 23 8.4 SSW 17 26 9 14 1020.4 1020.3 0.0
21/11:00am 16.2 10.0 -4.4 24 8.2 SSW 19 30 10 16 1020.7 1020.7 0.0
21/10:30am 15.1 9.5 -2.8 29 7.3 SSW 17 22 9 12 1020.9 1020.9 0.0
21/10:00am 13.9 8.0 -2.5 32 6.6 SW 19 28 10 15 1021.0 1021.0 0.0
21/09:30am 12.7 6.9 -1.6 37 5.8 SSW 19 28 10 15 1020.7 1020.7 0.0
21/09:00am 11.5 5.3 -0.3 44 4.9 SSW 22 30 12 16 1020.5 1020.4 0.0
21/08:30am 9.7 4.3 1.1 55 3.6 S 19 24 10 13 1020.3 1020.2 0.0
21/08:00am 7.8 2.7 3.3 73 2.0 S 19 26 10 14 1019.9 1019.8 0.0
21/07:47am 5.9 1.7 5.5 97 0.2 SSW 17 20 9 11 1019.8 1019.7 0.0
21/07:30am 0.7 -2.6 0.3 97 0.2 S 7 11 4 6 1019.8 1019.7 0.0
21/07:00am -0.8 -3.0 -1.4 96 0.2 CALM 0 0 0 0 1019.3 1019.2 0.0
21/06:30am -0.7 -3.6 -1.3 96 0.2 SSE 4 7 2 4 1019.2 1019.1 0.0
21/06:00am -0.2 -2.7 -0.8 96 0.2 SE 2 6 1 3 1018.8 1018.7 0.0
21/05:43am -0.3 -2.4 -0.9 96 0.2 CALM 0 0 0 0 1018.6 1018.6 0.0
21/05:30am -0.6 -2.8 -1.2 96 0.2 CALM 0 0 0 0 1018.5 1018.4 0.0
21/05:26am -0.4 -2.5 -1.0 96 0.2 CALM 0 0 0 0 1018.4 1018.3 0.0
21/05:00am -0.3 -2.4 -1.0 95 0.2 CALM 0 0 0 0 1018.2 1018.1 0.0
21/04:30am 0.0 -2.1 -0.7 95 0.3 CALM 0 0 0 0 1017.8 1017.7 0.0
21/04:00am 0.3 -2.1 -0.4 95 0.3 N 2 6 1 3 1017.9 1017.8 0.0
21/03:30am 0.6 -1.4 -0.1 95 0.3 CALM 0 0 0 0 1017.7 1017.6 0.0
21/03:00am 0.6 -1.4 -0.3 94 0.3 CALM 0 0 0 0 1017.5 1017.4 0.0
21/02:30am 0.5 -1.6 -0.5 93 0.4 CALM 0 0 0 0 1017.7 1017.6 0.0
21/02:00am 1.2 -0.8 0.0 92 0.4 CALM 0 6 0 3 1017.9 1017.8 0.0
21/01:30am 0.9 -2.3 -0.5 90 0.5 S 6 9 3 5 1017.9 1017.8 0.0
21/01:00am 1.7 -0.2 0.4 91 0.5 CALM 0 0 0 0 1018.0 1017.9 0.0
21/12:30am 2.2 -0.1 0.6 89 0.6 SSW 2 7 1 4 1018.2 1018.1 0.0
21/12:00am 2.5 0.7 0.9 89 0.6 CALM 0 0 0 0 1018.0 1017.9 0.0
 
Date/Time
EST
Temp
°C
App
Temp
°C
Dew
Point
°C
Rel
Hum
%
Delta-T
°C
Wind Press
QNH
hPa
Press
MSL
hPa
Rain since
9am
mm
Dir  Spd
km/h
Gust
km/h
Spd
kts
Gust
kts
20/11:30pm 2.8 1.0 1.2 89 0.6 CALM 0 0 0 0 1018.0 1017.9 0.0
20/11:00pm 3.1 1.3 1.2 87 0.7 CALM 0 0 0 0 1018.0 1017.9 0.0
20/10:30pm 3.6 0.5 1.6 87 0.8 SE 7 7 4 4 1017.9 1017.8 0.0
20/10:00pm 4.0 1.1 1.2 82 1.1 SSE 6 7 3 4 1018.0 1017.9 0.0
20/09:30pm 6.4 4.4 2.5 76 1.6 S 2 7 1 4 1018.2 1018.1 0.0
20/09:00pm 6.5 4.8 2.0 73 1.9 CALM 0 0 0 0 1018.5 1018.4 0.0
20/08:30pm 9.6 6.4 2.9 63 2.9 WSW 9 11 5 6 1018.3 1018.2 0.0
20/08:00pm 9.5 5.8 2.6 62 3.0 W 11 15 6 8 1018.3 1018.2 0.0
20/07:30pm 10.3 7.5 3.1 61 3.2 W 7 9 4 5 1018.2 1018.1 0.0
20/07:00pm 10.0 7.1 2.4 59 3.3 WNW 7 11 4 6 1017.9 1017.8 0.0
20/06:30pm 11.3 8.3 2.3 54 4.0 WNW 7 9 4 5 1017.8 1017.7 0.0
20/06:00pm 12.6 9.3 2.5 50 4.5 WSW 9 15 5 8 1017.5 1017.4 0.0
20/05:30pm 13.6 10.3 2.2 46 5.1 W 9 13 5 7 1017.2 1017.1 0.0
20/05:00pm 15.3 11.6 2.5 42 5.9 WSW 11 15 6 8 1016.9 1016.8 0.0
20/04:30pm 16.2 11.3 2.2 39 6.4 WSW 17 24 9 13 1016.6 1016.4 0.0
20/04:00pm 16.9 12.1 2.5 38 6.7 WSW 17 28 9 15 1016.6 1016.4 0.0
20/03:30pm 17.2 12.3 2.0 36 7.0 SW 17 26 9 14 1016.6 1016.4 0.0
20/03:00pm 17.5 12.4 3.0 38 6.8 WSW 19 30 10 16 1016.8 1016.7 0.0
20/02:30pm 17.2 11.8 2.4 37 6.9 SW 20 28 11 15 1017.0 1016.9 0.0
20/02:00pm 16.9 11.4 1.8 36 6.9 WSW 20 32 11 17 1017.3 1017.2 0.0
20/01:30pm 16.9 11.6 3.2 40 6.4 WSW 20 32 11 17 1017.3 1017.2 0.0
20/01:00pm 16.2 10.3 1.9 38 6.5 SW 22 32 12 17 1017.5 1017.4 0.0
20/12:30pm 16.6 11.7 4.3 44 5.9 WSW 19 30 10 16 1018.0 1017.9 0.0
20/12:00pm 15.9 11.7 3.7 44 5.7 W 15 22 8 12 1018.5 1018.4 0.0
20/11:30am 14.7 11.3 3.8 48 5.1 WSW 11 20 6 11 1019.0 1018.9 0.0
20/11:00am 14.6 9.6 4.6 51 4.7 SW 20 28 11 15 1019.1 1019.0 0.0
20/10:30am 14.4 9.6 4.4 51 4.7 SSW 19 28 10 15 1019.3 1019.2 0.0
20/10:00am 13.4 7.2 4.3 54 4.3 S 26 35 14 19 1019.6 1019.5 0.0
20/09:30am 12.8 6.2 4.3 56 4.0 S 28 35 15 19 1019.4 1019.3 0.0
20/09:00am 12.3 4.9 4.0 57 3.8 SSW 32 43 17 23 1019.5 1019.4 0.0
20/08:30am 11.7 5.8 3.7 58 3.6 SSW 24 32 13 17 1019.2 1019.1 0.0
20/08:00am 10.6 5.4 3.6 62 3.1 SSW 20 33 11 18 1019.0 1018.9 0.0
20/07:30am 9.2 5.0 3.6 68 2.5 S 15 20 8 11 1018.6 1018.6 0.0
20/07:00am 8.3 3.5 2.8 68 2.4 SSW 17 22 9 12 1018.3 1018.2 0.0
20/06:30am 8.3 3.6 3.0 69 2.3 SW 17 24 9 13 1018.0 1017.9 0.0
20/06:00am 6.8 2.3 2.1 72 2.0 SW 15 20 8 11 1018.0 1017.9 0.0
20/05:30am 8.9 4.8 2.5 64 2.8 WSW 13 20 7 11 1017.9 1017.8 0.0
20/05:00am 9.0 3.9 2.8 65 2.7 SW 19 28 10 15 1017.5 1017.4 0.0
20/04:30am 8.7 3.6 3.1 68 2.5 SW 19 26 10 14 1017.1 1017.0 0.0
20/04:00am 8.8 4.1 3.2 68 2.5 SW 17 24 9 13 1017.2 1017.1 0.0
20/03:30am 8.8 4.1 3.2 68 2.5 SW 17 28 9 15 1016.8 1016.7 0.0
20/03:00am 7.9 4.7 3.2 72 2.0 NNE 9 11 5 6 1016.8 1016.7 0.0
20/02:30am 9.2 4.5 3.2 66 2.6 SW 17 28 9 15 1016.4 1016.2 0.0
20/02:00am 8.6 5.7 2.6 66 2.6 ENE 7 11 4 6 1016.4 1016.2 0.0
20/01:30am 10.0 4.3 3.1 62 3.1 SW 22 43 12 23 1015.8 1015.7 0.0
20/01:00am 10.2 4.5 3.0 61 3.2 SW 22 37 12 20 1015.7 1015.6 0.0
20/12:30am 10.3 3.5 2.9 60 3.3 SW 28 44 15 24 1015.9 1015.8 0.0
20/12:01am 10.7 2.9 2.8 58 3.5 SW 33 52 18 28 1016.0 1015.9 0.0
20/12:00am 10.8 2.6 2.9 58 3.5 SW 35 52 19 28 1016.0 1015.9 0.0
 
Date/Time
EST
Temp
°C
App
Temp
°C
Dew
Point
°C
Rel
Hum
%
Delta-T
°C
Wind Press
QNH
hPa
Press
MSL
hPa
Rain since
9am
mm
Dir  Spd
km/h
Gust
km/h
Spd
kts
Gust
kts
19/11:30pm 10.8 3.5 2.6 57 3.6 SW 30 50 16 27 1016.1 1016.0 0.0
19/11:28pm 10.7 3.8 2.8 58 3.5 SW 28 50 15 27 1016.1 1016.0 0.0
19/11:00pm 10.9 4.0 2.7 57 3.6 SW 28 39 15 21 1016.5 1016.3 0.0
19/10:30pm 10.7 3.8 2.8 58 3.5 SW 28 41 15 22 1016.9 1016.8 0.0
19/10:00pm 10.8 4.3 2.9 58 3.5 WSW 26 43 14 23 1017.2 1017.1 0.0
19/09:30pm 11.2 5.5 2.8 56 3.7 WSW 22 33 12 18 1017.5 1017.4 0.0
19/09:00pm 11.5 6.1 2.5 54 4.0 WSW 20 32 11 17 1017.5 1017.4 0.0
19/08:30pm 10.6 6.5 2.2 56 3.7 WSW 13 19 7 10 1017.3 1017.2 0.0
19/08:00pm 11.1 7.0 2.4 55 3.8 WSW 13 19 7 10 1017.1 1017.0 0.0
19/07:30pm 11.2 7.4 2.0 53 4.0 WSW 11 19 6 10 1016.7 1016.6 0.0
19/07:00pm 10.9 7.9 1.7 53 4.0 SW 7 13 4 7 1016.0 1015.9 0.0
19/06:30pm 11.1 8.5 1.1 50 4.3 W 4 7 2 4 1015.5 1015.4 0.0
19/06:00pm 12.7 8.4 1.1 45 5.0 WSW 13 19 7 10 1014.9 1014.8 0.0
19/05:30pm 13.2 8.1 0.6 42 5.4 WSW 17 28 9 15 1014.6 1014.4 0.0
19/05:00pm 14.0 8.9 0.6 40 5.8 WSW 17 30 9 16 1014.2 1014.0 0.0
19/04:30pm 14.7 7.4 0.2 37 6.3 WSW 28 44 15 24 1013.7 1013.6 0.0
19/04:00pm 15.2 7.6 0.6 37 6.4 WSW 30 43 16 23 1013.3 1013.2 0.0
19/03:30pm 15.4 8.1 0.0 35 6.7 WSW 28 46 15 25 1013.1 1013.0 0.0
19/03:00pm 15.5 7.5 0.5 36 6.6 WSW 32 54 17 29 1013.0 1012.9 0.0
19/02:34pm 15.8 8.2 0.4 35 6.8 WSW 30 48 16 26 1012.8 1012.7 0.0
19/02:30pm 16.0 8.1 1.3 37 6.6 WSW 32 48 17 26 1012.8 1012.7 0.0
19/02:00pm 15.4 7.7 0.0 35 6.7 WSW 30 43 16 23 1012.8 1012.7 0.0
19/01:30pm 15.8 8.2 0.8 36 6.7 WSW 30 50 16 27 1013.0 1012.9 0.0
19/01:22pm 15.2 7.1 -0.1 35 6.6 WSW 32 50 17 27 1013.2 1013.1 0.0
19/01:00pm 15.5 7.5 0.1 35 6.7 SW 32 46 17 25 1013.4 1013.3 0.0
19/12:50pm 15.4 8.2 0.4 36 6.6 WSW 28 48 15 26 1013.7 1013.6 0.0
19/12:30pm 14.7 6.0 -0.2 36 6.4 W 35 48 19 26 1014.0 1013.8 0.0
19/12:00pm 15.1 7.7 2.0 41 5.9 W 30 48 16 26 1014.7 1014.6 0.0
19/11:57am 14.6 7.4 0.5 38 6.1 W 28 48 15 26 1014.7 1014.6 0.0
19/11:30am 14.2 6.3 1.2 41 5.7 SW 32 44 17 24 1015.2 1015.1 0.0
19/11:08am 13.9 5.7 0.2 39 5.9 WSW 33 56 18 30 1015.5 1015.4 0.0
19/11:00am 14.1 6.2 1.1 41 5.7 WSW 32 43 17 23 1015.7 1015.6 0.0
19/10:47am 14.2 6.8 1.8 43 5.5 WSW 30 48 16 26 1015.7 1015.6 0.0
19/10:30am 13.9 6.8 1.5 43 5.5 SW 28 39 15 21 1015.9 1015.8 0.0
19/10:00am 14.4 8.0 3.2 47 5.2 WSW 26 43 14 23 1016.0 1015.9 0.0
19/09:30am 13.6 7.5 2.8 48 4.9 SW 24 39 13 21 1016.2 1016.1 0.0
19/09:00am 13.0 8.4 3.9 54 4.2 WSW 17 22 9 12 1016.2 1016.1 1.6
19/08:30am 12.4 8.2 3.9 56 3.9 WSW 15 20 8 11 1016.2 1016.1 1.6
19/08:00am 11.7 8.8 4.9 63 3.2 W 9 15 5 8 1016.0 1015.9 1.6
19/07:30am 10.7 7.4 4.6 66 2.8 W 11 17 6 9 1015.8 1015.7 1.6
19/07:00am 9.1 6.0 5.7 79 1.6 WNW 11 13 6 7 1015.5 1015.4 1.6
19/06:30am 7.5 6.8 6.9 96 0.3 CALM 0 0 0 0 1015.2 1015.1 1.6
19/06:00am 8.0 7.4 7.6 97 0.2 CALM 0 0 0 0 1015.0 1014.9 1.6
19/05:30am 8.9 8.6 8.5 97 0.2 CALM 0 0 0 0 1014.6 1014.4 1.4
19/05:00am 9.2 8.9 8.6 96 0.3 CALM 0 0 0 0 1014.4 1014.2 1.4
19/04:30am 9.6 8.9 8.7 94 0.5 W 2 6 1 3 1014.3 1014.1 1.4
19/04:17am 10.7 9.6 9.9 95 0.4 WSW 6 7 3 4 1014.3 1014.1 1.4
19/04:00am 10.5 10.4 9.6 94 0.5 CALM 0 6 0 3 1014.3 1014.1 1.4
19/03:56am 10.7 10.7 9.9 95 0.4 CALM 0 0 0 0 1014.2 1014.0 1.4
19/03:30am 11.5 10.4 10.6 94 0.5 NW 7 9 4 5 1014.2 1014.0 1.4
19/03:00am 12.0 10.6 10.9 93 0.6 NW 9 13 5 7 1014.3 1014.1 1.4
19/02:30am 12.6 11.5 10.8 89 1.0 WNW 7 11 4 6 1014.3 1014.1 1.4
19/02:00am 13.2 12.4 11.6 90 0.9 NNW 7 9 4 5 1014.5 1014.3 1.4
19/01:30am 13.8 12.9 12.5 92 0.7 N 9 13 5 7 1015.2 1015.1 1.4
19/01:00am 13.9 13.4 12.6 92 0.7 NNE 7 9 4 5 1015.3 1015.2 1.4
19/12:30am 14.2 13.7 12.8 91 0.8 W 7 11 4 6 1016.0 1015.9 1.0
19/12:00am 14.3 14.4 12.7 90 0.9 E 4 9 2 5 1015.8 1015.7 0.6
 
Date/Time
EST
Temp
°C
App
Temp
°C
Dew
Point
°C
Rel
Hum
%
Delta-T
°C
Wind Press
QNH
hPa
Press
MSL
hPa
Rain since
9am
mm
Dir  Spd
km/h
Gust
km/h
Spd
kts
Gust
kts
18/11:30pm 15.2 14.6 11.8 80 1.9 WNW 6 11 3 6 1016.7 1016.6 0.0
18/11:00pm 16.6 14.0 12.0 74 2.6 W 17 35 9 19 1016.7 1016.6 0.0
18/10:30pm 15.3 13.1 10.7 74 2.5 NW 13 19 7 10 1015.9 1015.8 0.0
18/10:00pm 16.7 13.7 10.8 68 3.2 N 17 24 9 13 1015.9 1015.8 0.0
18/09:30pm 17.5 14.5 10.6 64 3.8 N 17 28 9 15 1015.7 1015.6 0.0
18/09:00pm 17.1 14.9 10.7 66 3.5 N 13 17 7 9 1016.1 1016.0 0.0
18/08:30pm 15.6 14.1 11.8 78 2.1 N 11 13 6 7 1016.4 1016.2 0.0
18/08:00pm 14.7 14.8 10.1 74 2.4 CALM 0 0 0 0 1016.8 1016.7 0.0
18/07:30pm 15.1 15.2 10.1 72 2.7 CALM 0 2 0 1 1017.0 1016.9 0.0
18/07:00pm 15.1 14.3 9.7 70 2.9 N 4 7 2 4 1016.9 1016.8 0.0
18/06:30pm 16.6 15.1 10.7 68 3.2 NNE 9 13 5 7 1016.8 1016.7 0.0
18/06:00pm 17.1 16.3 10.9 67 3.4 NNE 6 7 3 4 1016.7 1016.6 0.0
18/05:30pm 19.4 17.8 10.1 55 5.1 N 9 11 5 6 1016.7 1016.6 0.0
18/05:00pm 20.6 18.1 9.8 50 5.9 NNW 13 17 7 9 1016.6 1016.4 0.0
18/04:30pm 22.0 18.5 10.2 47 6.6 NW 19 24 10 13 1016.5 1016.3 0.0
18/04:00pm 23.2 19.6 9.9 43 7.4 NW 19 26 10 14 1016.5 1016.3 0.0
18/03:30pm 23.4 19.4 10.5 44 7.3 NW 22 26 12 14 1016.5 1016.3 0.0
18/03:00pm 23.8 20.6 11.2 45 7.2 NW 19 30 10 16 1016.6 1016.4 0.0

Other Formats:

Comma delimited format used in spreadsheet applications
http://www.bom.gov.au/fwo/IDQ60801/IDQ60801.94549.axf

JavaScript Object Notation format (JSON) in row-major order
http://www.bom.gov.au/fwo/IDQ60801/IDQ60801.94549.json